createdAt,value
2018-09-21T00:01:01.924Z,19.97
2018-09-21T00:03:30.418Z,19.27
2018-09-21T00:05:59.008Z,18.23
2018-09-21T00:08:27.466Z,19.93
2018-09-21T00:10:56.351Z,19.17
2018-09-21T00:13:25.240Z,19.30
2018-09-21T00:15:53.829Z,19.87
2018-09-21T00:18:22.407Z,20.97
2018-09-21T00:20:50.995Z,20.37
2018-09-21T00:23:19.621Z,18.53
2018-09-21T00:25:48.673Z,19.50
2018-09-21T00:28:17.453Z,19.73
2018-09-21T00:30:46.066Z,19.63
2018-09-21T00:33:14.573Z,18.50
2018-09-21T00:35:43.410Z,17.90
2018-09-21T00:38:12.176Z,17.93
2018-09-21T00:40:40.993Z,16.47
2018-09-21T00:43:09.988Z,16.00
2018-09-21T00:45:38.487Z,16.07
2018-09-21T00:48:06.967Z,14.70
2018-09-21T00:50:35.727Z,15.73
2018-09-21T00:53:04.335Z,15.73
2018-09-21T00:55:32.993Z,14.83
2018-09-21T00:58:01.460Z,15.73
2018-09-21T01:00:30.374Z,15.07
2018-09-21T01:02:58.942Z,15.23
2018-09-21T01:05:27.424Z,15.40
2018-09-21T01:07:56.214Z,15.67
2018-09-21T01:10:24.730Z,15.13
2018-09-21T01:12:53.228Z,15.17
2018-09-21T01:15:22.138Z,14.40
2018-09-21T01:17:50.683Z,15.07
2018-09-21T01:20:19.474Z,14.83
2018-09-21T01:22:48.431Z,15.33
2018-09-21T01:25:17.046Z,16.37
2018-09-21T01:27:45.597Z,16.53
2018-09-21T01:30:14.021Z,14.70
2018-09-21T01:33:26.257Z,14.60
2018-09-21T01:35:55.478Z,15.27
2018-09-21T01:38:24.094Z,14.30
2018-09-21T01:40:52.726Z,13.80
2018-09-21T01:43:21.200Z,14.53
2018-09-21T01:45:49.871Z,14.60
2018-09-21T01:48:18.416Z,14.30
2018-09-21T01:50:46.931Z,14.80
2018-09-21T01:53:15.359Z,14.00
2018-09-21T01:55:43.780Z,15.83
2018-09-21T01:58:12.246Z,13.57
2018-09-21T02:00:41.110Z,14.10
2018-09-21T02:03:09.585Z,13.87
2018-09-21T02:05:38.022Z,13.83
2018-09-21T02:08:06.566Z,14.07
2018-09-21T02:10:35.005Z,13.73
2018-09-21T02:13:04.161Z,14.47
2018-09-21T02:15:33.118Z,14.33
2018-09-21T02:18:01.624Z,14.10
2018-09-21T02:20:30.236Z,14.40
2018-09-21T02:22:58.704Z,14.70
2018-09-21T02:25:27.520Z,14.03
2018-09-21T02:27:56.339Z,15.83
2018-09-21T02:30:24.923Z,15.27
2018-09-21T02:32:53.416Z,14.80
2018-09-21T02:35:22.201Z,14.60
2018-09-21T02:37:50.986Z,15.13
2018-09-21T02:40:19.873Z,14.60
2018-09-21T02:42:48.566Z,15.10
2018-09-21T02:45:17.391Z,14.53
2018-09-21T02:47:46.027Z,14.63
2018-09-21T02:50:14.490Z,14.87
2018-09-21T02:52:43.320Z,15.53
2018-09-21T02:55:12.387Z,14.13
2018-09-21T02:57:48.139Z,14.47
2018-09-21T03:00:17.043Z,14.80
2018-09-21T03:02:46.188Z,13.83
2018-09-21T03:05:15.424Z,14.90
2018-09-21T03:07:43.889Z,14.37
2018-09-21T03:10:12.457Z,14.33
2018-09-21T03:12:51.194Z,13.97
2018-09-21T03:15:20.322Z,15.27
2018-09-21T03:17:49.076Z,15.20
2018-09-21T03:20:17.678Z,14.40
2018-09-21T03:22:46.476Z,14.20
2018-09-21T03:25:14.974Z,13.97
2018-09-21T03:27:43.704Z,15.33
2018-09-21T03:30:12.641Z,14.37
2018-09-21T03:32:41.519Z,15.10
2018-09-21T03:35:10.092Z,14.63
2018-09-21T03:37:38.548Z,14.90
2018-09-21T03:40:07.366Z,14.77
2018-09-21T03:42:36.101Z,15.43
2018-09-21T03:45:04.856Z,14.60
2018-09-21T03:47:33.497Z,15.73
2018-09-21T03:50:02.107Z,15.80
2018-09-21T03:52:30.604Z,14.93
2018-09-21T03:54:59.268Z,15.80
2018-09-21T03:57:27.745Z,16.10
2018-09-21T03:59:56.426Z,15.73
2018-09-21T04:02:25.225Z,15.57
2018-09-21T04:04:54.118Z,15.27
2018-09-21T04:07:22.643Z,16.50
2018-09-21T04:09:51.228Z,17.40
2018-09-21T04:12:20.069Z,17.07
2018-09-21T04:14:48.881Z,16.03
2018-09-21T04:17:17.740Z,16.73
2018-09-21T04:19:46.478Z,16.23
2018-09-21T04:22:15.371Z,16.27
2018-09-21T04:24:44.288Z,16.13
2018-09-21T04:27:12.816Z,17.37
2018-09-21T04:29:41.685Z,16.27
2018-09-21T04:32:10.470Z,17.65
2018-09-21T04:34:39.491Z,15.97
2018-09-21T04:37:07.998Z,17.33
2018-09-21T04:39:37.244Z,15.77
2018-09-21T04:42:06.093Z,16.03
2018-09-21T04:44:34.543Z,16.23
2018-09-21T04:47:03.406Z,17.57
2018-09-21T04:49:32.211Z,17.30
2018-09-21T04:52:00.727Z,17.00
2018-09-21T04:54:29.161Z,17.77
2018-09-21T04:56:57.967Z,16.97
2018-09-21T04:59:26.749Z,16.73
2018-09-21T05:01:55.635Z,19.87
2018-09-21T05:04:24.499Z,18.93
2018-09-21T05:06:53.088Z,18.77
2018-09-21T05:09:21.745Z,18.50
2018-09-21T05:11:50.252Z,18.07
2018-09-21T05:14:19.257Z,18.03
2018-09-21T05:16:47.869Z,18.37
2018-09-21T05:19:16.626Z,18.00
2018-09-21T05:21:45.610Z,17.27
2018-09-21T05:24:14.464Z,17.03
2018-09-21T05:26:43.447Z,17.00
2018-09-21T05:29:12.256Z,18.10
2018-09-21T05:31:41.226Z,17.63
2018-09-21T05:34:10.199Z,19.03
2018-09-21T05:36:39.156Z,19.93
2018-09-21T05:39:11.338Z,18.23
2018-09-21T05:41:40.258Z,17.93
2018-09-21T05:44:09.864Z,17.27
2018-09-21T05:46:38.916Z,17.53
2018-09-21T05:49:08.037Z,17.87
2018-09-21T05:51:36.857Z,16.77
2018-09-21T05:54:05.787Z,18.73
2018-09-21T05:56:35.073Z,18.27
2018-09-21T05:59:04.788Z,17.00
2018-09-21T06:01:33.252Z,24.07
2018-09-21T06:04:02.096Z,22.17
2018-09-21T06:06:31.018Z,31.40
2018-09-21T06:08:59.452Z,31.07
2018-09-21T06:11:28.904Z,32.40
2018-09-21T06:13:57.405Z,24.90
2018-09-21T06:16:26.324Z,26.40
2018-09-21T06:18:54.857Z,23.23
2018-09-21T06:21:24.922Z,25.20
2018-09-21T06:23:53.870Z,23.17
2018-09-21T06:26:22.710Z,24.27
2018-09-21T06:28:51.442Z,21.27
2018-09-21T06:31:20.484Z,20.23
2018-09-21T06:33:49.998Z,20.43
2018-09-21T06:36:19.547Z,20.17
2018-09-21T06:38:47.983Z,18.60
2018-09-21T06:41:16.704Z,16.23
2018-09-21T06:43:46.467Z,12.97
2018-09-21T06:46:15.155Z,11.10
2018-09-21T06:48:43.968Z,11.20
2018-09-21T06:51:12.721Z,10.27
2018-09-21T06:53:41.208Z,10.20
2018-09-21T06:56:09.910Z,10.03
2018-09-21T06:58:38.822Z,10.50
2018-09-21T07:01:07.270Z,11.20
2018-09-21T07:03:35.707Z,10.23
2018-09-21T07:06:04.642Z,10.23
2018-09-21T07:08:33.160Z,10.63
2018-09-21T07:11:01.640Z,10.17
2018-09-21T07:13:30.081Z,10.23
2018-09-21T07:15:59.279Z,8.70
2018-09-21T07:18:27.923Z,8.63
2018-09-21T07:20:57.095Z,8.43
2018-09-21T07:23:26.071Z,8.18
2018-09-21T07:25:56.484Z,7.87
2018-09-21T07:28:24.964Z,8.43
2018-09-21T07:30:53.443Z,8.70
2018-09-21T07:33:22.262Z,8.75
2018-09-21T07:35:50.840Z,7.97
2018-09-21T07:38:19.414Z,8.30
2018-09-21T07:40:47.864Z,8.10
2018-09-21T07:43:16.347Z,7.83
2018-09-21T07:45:45.135Z,8.80
2018-09-21T07:48:13.921Z,8.20
2018-09-21T07:50:42.389Z,8.60
2018-09-21T07:53:10.847Z,8.90
2018-09-21T07:55:39.350Z,10.47
2018-09-21T07:58:07.855Z,10.20
2018-09-21T08:00:36.641Z,10.23
2018-09-21T08:03:05.416Z,9.50
2018-09-21T08:05:35.039Z,9.37
2018-09-21T08:08:04.996Z,9.23
2018-09-21T08:10:33.563Z,8.70
2018-09-21T08:13:02.430Z,8.93
2018-09-21T08:15:31.626Z,8.87
2018-09-21T08:18:00.612Z,8.37
2018-09-21T08:20:29.276Z,8.77
2018-09-21T08:22:58.085Z,9.60
2018-09-21T08:25:26.937Z,8.97
2018-09-21T08:27:55.777Z,9.63
2018-09-21T08:30:24.503Z,10.43
2018-09-21T08:32:53.171Z,9.40
2018-09-21T08:35:22.330Z,8.97
2018-09-21T08:37:51.242Z,9.13
2018-09-21T08:40:20.221Z,8.80
2018-09-21T08:42:49.466Z,9.03
2018-09-21T08:45:18.526Z,9.90
2018-09-21T08:47:47.595Z,10.23
2018-09-21T08:50:16.752Z,8.93
2018-09-21T08:52:45.793Z,9.97
2018-09-21T08:55:14.735Z,8.97
2018-09-21T08:57:43.825Z,9.50
2018-09-21T09:00:13.056Z,9.77
2018-09-21T09:02:41.912Z,9.07
2018-09-21T09:05:11.053Z,9.57
2018-09-21T09:07:40.056Z,10.80
2018-09-21T09:10:09.228Z,8.77
2018-09-21T09:12:38.046Z,9.40
2018-09-21T09:15:07.310Z,10.40
2018-09-21T09:17:36.205Z,9.17
2018-09-21T09:20:05.240Z,8.90
2018-09-21T09:22:34.329Z,9.40
2018-09-21T09:25:04.045Z,9.83
2018-09-21T09:27:33.406Z,8.83
2018-09-21T09:30:02.977Z,9.47
2018-09-21T09:32:31.625Z,9.53
2018-09-21T09:35:00.465Z,8.57
2018-09-21T09:37:29.083Z,10.03
2018-09-21T09:39:57.794Z,9.50
2018-09-21T09:42:26.477Z,9.17
2018-09-21T09:44:55.549Z,9.50
2018-09-21T09:47:25.009Z,9.30
2018-09-21T09:49:54.064Z,9.43
2018-09-21T09:52:22.979Z,9.23
2018-09-21T09:54:51.957Z,8.73
2018-09-21T09:57:21.190Z,9.00
2018-09-21T09:59:51.142Z,8.93
2018-09-21T10:02:19.940Z,8.80
2018-09-21T10:04:48.637Z,8.13
2018-09-21T10:07:17.075Z,9.20
2018-09-21T10:09:45.574Z,9.17
2018-09-21T10:12:14.172Z,8.53
2018-09-21T10:14:42.567Z,8.67
2018-09-21T10:17:11.585Z,8.13
2018-09-21T10:19:40.684Z,8.23
2018-09-21T10:22:09.567Z,7.93
2018-09-21T10:24:38.086Z,8.50
2018-09-21T10:27:06.787Z,9.13
2018-09-21T10:29:35.267Z,7.83
2018-09-21T10:32:03.849Z,7.13
2018-09-21T10:34:32.481Z,8.30
2018-09-21T10:37:00.985Z,8.30
2018-09-21T10:39:29.983Z,8.90
2018-09-21T10:41:58.553Z,8.13
2018-09-21T10:44:27.117Z,8.65
2018-09-21T10:46:55.712Z,8.28
2018-09-21T10:49:24.141Z,7.17
2018-09-21T10:51:52.665Z,7.70
2018-09-21T10:54:21.504Z,7.83
2018-09-21T10:56:50.246Z,8.43
2018-09-21T10:59:19.309Z,7.50
2018-09-21T11:01:48.083Z,7.40
2018-09-21T11:04:16.969Z,8.05
2018-09-21T11:06:45.904Z,7.05
2018-09-21T11:09:14.983Z,7.25
2018-09-21T11:11:43.752Z,7.80
2018-09-21T11:14:13.403Z,7.03
2018-09-21T11:16:42.299Z,7.25
2018-09-21T11:19:12.068Z,6.92
2018-09-21T11:21:40.846Z,7.83
2018-09-21T11:24:09.726Z,7.60
2018-09-21T11:26:38.618Z,6.97
2018-09-21T11:29:07.399Z,6.97
2018-09-21T11:31:36.184Z,7.30
2018-09-21T11:34:05.112Z,7.05
2018-09-21T11:36:34.176Z,7.70
2018-09-21T11:39:03.084Z,7.17
2018-09-21T11:41:32.235Z,7.95
2018-09-21T11:44:00.960Z,8.00
2018-09-21T11:46:29.614Z,7.25
2018-09-21T11:48:58.980Z,8.18
2018-09-21T11:51:27.780Z,7.50
2018-09-21T11:53:56.408Z,7.58
2018-09-21T11:56:25.297Z,7.35
2018-09-21T11:58:54.082Z,8.28
2018-09-21T12:01:23.078Z,7.65
2018-09-21T12:03:52.138Z,7.58
2018-09-21T12:06:21.004Z,8.00
2018-09-21T12:08:49.597Z,8.03
2018-09-21T12:11:18.228Z,7.30
2018-09-21T12:13:46.708Z,8.03
2018-09-21T12:16:15.189Z,8.05
2018-09-21T12:18:44.082Z,7.72
2018-09-21T12:21:12.971Z,7.08
2018-09-21T12:23:41.864Z,7.15
2018-09-21T12:26:10.680Z,7.33
2018-09-21T12:28:39.485Z,7.83
2018-09-21T12:31:08.352Z,7.72
2018-09-21T12:33:37.875Z,7.42
2018-09-21T12:36:07.355Z,7.33
2018-09-21T12:38:36.631Z,7.45
2018-09-21T12:41:05.499Z,6.97
2018-09-21T12:43:34.420Z,7.47
2018-09-21T12:46:05.003Z,8.08
2018-09-21T12:48:37.293Z,7.58
2018-09-21T12:51:06.415Z,7.63
2018-09-21T12:53:35.196Z,8.20
2018-09-21T12:56:04.028Z,7.80
2018-09-21T12:58:32.652Z,8.03
2018-09-21T13:01:01.084Z,8.60
2018-09-21T13:03:29.692Z,9.57
2018-09-21T13:05:58.090Z,8.60
2018-09-21T13:08:27.257Z,7.97
2018-09-21T13:10:56.315Z,8.53
2018-09-21T13:13:24.830Z,8.47
2018-09-21T13:15:53.336Z,8.37
2018-09-21T13:18:21.825Z,8.77
2018-09-21T13:20:51.360Z,8.50
2018-09-21T13:23:20.145Z,8.13
2018-09-21T13:25:48.625Z,8.60
2018-09-21T13:28:17.153Z,8.43
2018-09-21T13:30:45.715Z,9.03
2018-09-21T13:33:14.578Z,8.37
2018-09-21T13:35:43.020Z,8.73
2018-09-21T13:38:11.543Z,7.53
2018-09-21T13:40:40.010Z,7.83
2018-09-21T13:43:08.514Z,8.20
2018-09-21T13:45:37.146Z,10.20
2018-09-21T13:48:05.880Z,9.00
2018-09-21T13:50:34.349Z,8.33
2018-09-21T13:53:02.943Z,8.80
2018-09-21T13:55:31.483Z,9.67
2018-09-21T13:57:59.971Z,8.73
2018-09-21T14:00:28.799Z,8.67
2018-09-21T14:02:57.263Z,8.43
2018-09-21T14:05:25.862Z,8.50
2018-09-21T14:07:54.290Z,9.23
2018-09-21T14:10:23.140Z,8.63
2018-09-21T14:12:51.643Z,9.00
2018-09-21T14:15:20.201Z,8.90
2018-09-21T14:17:48.830Z,9.23
2018-09-21T14:20:17.472Z,8.97
2018-09-21T14:22:46.185Z,9.33
2018-09-21T14:25:14.696Z,8.77
2018-09-21T14:27:43.519Z,10.00
2018-09-21T14:30:12.252Z,8.63
2018-09-21T14:32:41.088Z,8.97
2018-09-21T14:35:09.646Z,9.97
2018-09-21T14:37:39.153Z,9.80
2018-09-21T14:40:07.900Z,9.37
2018-09-21T14:42:36.654Z,10.57
2018-09-21T14:45:05.846Z,9.37
2018-09-21T14:47:34.435Z,10.10
2018-09-21T14:50:02.939Z,10.97
2018-09-21T14:52:31.744Z,12.03
2018-09-21T14:55:00.232Z,11.27
2018-09-21T14:57:28.701Z,9.97
2018-09-21T14:59:57.773Z,11.43
2018-09-21T15:02:26.223Z,9.83
2018-09-21T15:04:54.702Z,9.27
2018-09-21T15:07:23.206Z,9.53
2018-09-21T15:09:51.708Z,9.93
2018-09-21T15:12:20.600Z,9.50
2018-09-21T15:14:49.564Z,9.43
2018-09-21T15:17:18.284Z,10.03
2018-09-21T15:19:46.779Z,9.77
2018-09-21T15:22:15.292Z,10.57
2018-09-21T15:24:43.788Z,9.73
2018-09-21T15:27:12.335Z,10.60
2018-09-21T15:29:40.945Z,10.37
2018-09-21T15:32:09.424Z,10.47
2018-09-21T15:34:38.123Z,11.30
2018-09-21T15:37:06.637Z,10.40
2018-09-21T15:39:35.179Z,9.90
2018-09-21T15:42:03.837Z,11.10
2018-09-21T15:44:32.441Z,11.03
2018-09-21T15:47:00.971Z,11.30
2018-09-21T15:49:29.624Z,11.60
2018-09-21T15:51:58.310Z,11.63
2018-09-21T15:54:26.792Z,12.57
2018-09-21T15:56:55.274Z,12.63
2018-09-21T15:59:23.903Z,13.30
2018-09-21T16:01:52.441Z,11.97
2018-09-21T16:04:21.232Z,12.77
2018-09-21T16:06:49.834Z,12.70
2018-09-21T16:09:18.301Z,13.77
2018-09-21T16:11:46.846Z,13.30
2018-09-21T16:14:15.293Z,13.27
2018-09-21T16:16:43.744Z,16.00
2018-09-21T16:19:12.259Z,15.13
2018-09-21T16:21:40.860Z,15.03
2018-09-21T16:24:10.065Z,15.20
2018-09-21T16:26:38.614Z,15.87
2018-09-21T16:29:07.071Z,15.40
2018-09-21T16:31:35.502Z,14.80
2018-09-21T16:34:04.103Z,13.63
2018-09-21T16:36:32.832Z,14.17
2018-09-21T16:39:01.377Z,15.37
2018-09-21T16:41:29.801Z,15.20
2018-09-21T16:43:58.465Z,14.97
2018-09-21T16:46:26.911Z,15.27
2018-09-21T16:48:55.338Z,15.47
2018-09-21T16:51:23.865Z,16.10
2018-09-21T16:53:52.386Z,16.33
2018-09-21T16:56:20.856Z,16.17
2018-09-21T16:58:49.377Z,16.23
2018-09-21T17:01:18.048Z,17.13
2018-09-21T17:03:46.516Z,15.83
2018-09-21T17:06:15.052Z,16.10
2018-09-21T17:08:43.509Z,17.00
2018-09-21T17:11:12.054Z,16.17
2018-09-21T17:13:40.527Z,16.53
2018-09-21T17:16:09.127Z,16.17
2018-09-21T17:18:37.596Z,16.83
2018-09-21T17:21:06.174Z,16.93
2018-09-21T17:23:34.644Z,16.70
2018-09-21T17:26:03.225Z,16.00
2018-09-21T17:28:32.055Z,17.20
2018-09-21T17:31:00.546Z,17.47
2018-09-21T17:33:29.385Z,16.30
2018-09-21T17:35:57.896Z,17.00
2018-09-21T17:38:26.367Z,17.83
2018-09-21T17:40:54.935Z,18.70
2018-09-21T17:43:23.413Z,18.17
2018-09-21T17:45:51.829Z,18.37
2018-09-21T17:48:20.653Z,17.70
2018-09-21T17:50:49.152Z,17.33
2018-09-21T17:53:17.583Z,18.23
2018-09-21T17:55:46.041Z,18.23
2018-09-21T17:58:14.469Z,17.90
2018-09-21T18:00:43.021Z,17.73
2018-09-21T18:03:11.503Z,19.10
2018-09-21T18:05:39.956Z,17.67
2018-09-21T18:08:08.555Z,18.67
2018-09-21T18:10:37.090Z,19.13
2018-09-21T18:13:05.556Z,18.53
2018-09-21T18:15:34.129Z,19.47
2018-09-21T18:18:03.036Z,18.80
2018-09-21T18:20:31.565Z,17.07
2018-09-21T18:23:00.206Z,18.93
2018-09-21T18:25:28.639Z,18.30
2018-09-21T18:27:57.181Z,19.77
2018-09-21T18:30:25.866Z,20.03
2018-09-21T18:32:54.377Z,19.57
2018-09-21T18:35:23.142Z,21.80
2018-09-21T18:37:51.700Z,21.63
2018-09-21T18:40:20.227Z,20.70
2018-09-21T18:42:48.781Z,24.03
2018-09-21T18:45:17.906Z,22.63
2018-09-21T18:47:46.820Z,21.17
2018-09-21T18:50:15.504Z,23.33
2018-09-21T18:52:43.983Z,24.53
2018-09-21T18:55:12.554Z,22.67
2018-09-21T18:57:41.409Z,22.50
2018-09-21T19:00:10.224Z,21.73
2018-09-21T19:02:38.838Z,22.60
2018-09-21T19:05:07.306Z,26.57
2018-09-21T19:07:35.827Z,34.87
2018-09-21T19:10:04.383Z,31.27
2018-09-21T19:12:32.996Z,30.33
2018-09-21T19:15:01.538Z,27.97
2018-09-21T19:17:30.249Z,28.53
2018-09-21T19:19:58.742Z,28.67
2018-09-21T19:22:27.287Z,28.37
2018-09-21T19:24:55.827Z,26.70
2018-09-21T19:27:24.286Z,23.83
2018-09-21T19:29:52.736Z,24.27
2018-09-21T19:32:21.318Z,30.90
2018-09-21T19:34:49.781Z,27.13
2018-09-21T19:37:18.524Z,20.63
2018-09-21T19:39:47.043Z,22.13
2018-09-21T19:42:15.564Z,20.33
2018-09-21T19:44:44.051Z,19.50
2018-09-21T19:47:12.593Z,17.70
2018-09-21T19:49:41.185Z,18.47
2018-09-21T19:52:09.716Z,17.67
2018-09-21T19:54:38.539Z,18.00
2018-09-21T19:57:07.244Z,19.57
2018-09-21T19:59:36.283Z,19.20
2018-09-21T20:02:05.168Z,24.27
2018-09-21T20:04:33.784Z,24.10
2018-09-21T20:07:02.433Z,23.90
2018-09-21T20:09:31.229Z,23.57
2018-09-21T20:11:59.825Z,21.97
2018-09-21T20:14:28.330Z,23.23
2018-09-21T20:16:57.023Z,21.03
2018-09-21T20:19:25.971Z,22.22
2018-09-21T20:21:54.707Z,21.90
2018-09-21T20:24:23.380Z,22.73
2018-09-21T20:26:52.137Z,26.57
2018-09-21T20:29:20.823Z,23.70
2018-09-21T20:31:54.790Z,28.33
2018-09-21T20:34:23.662Z,26.60
2018-09-21T20:36:52.599Z,23.47
2018-09-21T20:39:21.758Z,22.13
2018-09-21T20:41:50.312Z,20.20
2018-09-21T20:44:18.775Z,20.53
2018-09-21T20:46:47.303Z,20.17
2018-09-21T20:49:16.232Z,20.70
2018-09-21T20:51:45.139Z,18.83
2018-09-21T20:54:13.855Z,19.63
2018-09-21T20:56:42.444Z,18.67
2018-09-21T20:59:11.706Z,18.23
2018-09-21T21:01:40.263Z,17.80
2018-09-21T21:04:08.785Z,16.87
2018-09-21T21:06:37.279Z,17.33
2018-09-21T21:09:08.185Z,17.60
2018-09-21T21:11:36.829Z,17.53
2018-09-21T21:14:05.295Z,17.07
2018-09-21T21:16:33.858Z,16.27
2018-09-21T21:19:02.318Z,15.90
2018-09-21T21:21:30.925Z,16.13
2018-09-21T21:23:59.532Z,16.27
2018-09-21T21:26:28.044Z,16.20
2018-09-21T21:28:56.523Z,17.93
2018-09-21T21:31:25.042Z,17.10
2018-09-21T21:33:53.621Z,17.03
2018-09-21T21:36:22.114Z,16.73
2018-09-21T21:38:50.593Z,18.80
